Time;durP1;ratioP1;P1;durP2;ratioP2;P2;SDS_P1;SDS_P2;PMS_P1;PMS_P2;Temp;Humidity;BMP_temperature;BMP_pressure;BME280_temperature;BME280_humidity;BME280_pressure;Samples;Min_cycle;Max_cycle;Signal;HPM_P1;HPM_P2
2022/06/05 03:29:23;;;;;;;;;;;;;;;14.06;100.00;99430.22;6270555;22;19938;-89
2022/06/05 03:31:58;;;;;;;;;;;;;;;14.30;100.00;99447.28;6250342;22;19915;-88
2022/06/05 03:34:56;;;;;;;;;;;;;;;13.80;100.00;99459.28;6251582;22;20235;-92
2022/06/05 03:37:22;;;;;;;;;;;;;;;14.14;100.00;99473.22;6184624;22;19919;-91
2022/06/05 03:39:47;;;;;;;;;;;;;;;13.78;100.00;99486.00;6277380;22;20242;-88
2022/06/05 03:42:13;;;;;;;;;;;;;;;13.97;100.00;99487.56;6248985;22;20238;-88
2022/06/05 03:44:39;;;;;;;;;;;;;;;14.20;100.00;99486.16;6277158;22;20307;-89
2022/06/05 03:47:05;;;;;;;;;;;;;;;13.72;100.00;99496.19;6277186;22;19919;-89
2022/06/05 03:50:05;;;;;;;;;;;;;;;14.08;100.00;99497.56;6250309;22;20269;-89
2022/06/05 03:52:29;;;;;;;;;;;;;;;13.81;100.00;99495.63;6273794;22;19915;-90
2022/06/05 03:55:00;;;;;;;;;;;;;;;13.92;100.00;99495.84;6277129;22;19953;-89
2022/06/05 03:57:36;;;;;;;;;;;;;;;14.19;100.00;99499.56;6248632;22;19922;-90
2022/06/05 04:00:05;;;;;;;;;;;;;;;13.72;100.00;99501.50;6249179;22;19918;-88
2022/06/05 04:02:31;;;;;;;;;;;;;;;14.11;100.00;99498.22;6277461;22;19916;-88
2022/06/05 04:04:56;;;;;;;;;;;;;;;13.83;100.00;99500.88;6250154;22;19994;-89
2022/06/05 04:07:23;;;;;;;;;;;;;;;13.90;100.00;99489.75;6250116;22;19911;-91
2022/06/05 04:09:58;;;;;;;;;;;;;;;14.21;100.00;99487.84;6250124;22;19923;-89
2022/06/05 04:15:19;;;;;;;;;;;;;;;14.15;100.00;99488.22;6277255;22;19934;-90
2022/06/05 04:18:13;;;;;;;;;;;;;;;13.88;100.00;99485.47;6212857;23;19912;-91
2022/06/05 04:20:42;;;;;;;;;;;;;;;13.99;100.00;99486.53;6180721;23;19919;-89
2022/06/05 04:23:10;;;;;;;;;;;;;;;14.20;100.00;99475.50;6187844;23;19998;-90
2022/06/05 04:25:40;;;;;;;;;;;;;;;13.75;100.00;99480.03;6212891;23;19919;-90
2022/06/05 04:28:08;;;;;;;;;;;;;;;14.11;100.00;99471.56;6188437;22;20454;-90
2022/06/05 04:30:41;;;;;;;;;;;;;;;13.91;100.00;99475.50;6243036;23;20316;-90
2022/06/05 04:33:07;;;;;;;;;;;;;;;13.94;100.00;99467.28;6243346;23;19931;-90
2022/06/05 04:35:40;;;;;;;;;;;;;;;14.22;100.00;99454.94;6217949;23;19912;-91
2022/06/05 04:38:11;;;;;;;;;;;;;;;13.71;100.00;99449.22;6243536;23;20045;-90
2022/06/05 04:40:41;;;;;;;;;;;;;;;14.11;100.00;99438.75;6243416;23;19911;-90
2022/06/05 04:45:34;;;;;;;;;;;;;;;13.91;100.00;99413.38;6278986;22;19923;-90
2022/06/05 12:53:40;;;;;;;;;;;;;;;15.18;100.00;99297.50;6310755;22;19941;-89
2022/06/05 12:56:24;;;;;;;;;;;;;;;14.92;100.00;99307.31;6307449;22;19918;-87
2022/06/05 12:59:08;;;;;;;;;;;;;;;15.04;100.00;99305.59;6339094;22;20275;-87
2022/06/05 13:01:38;;;;;;;;;;;;;;;14.93;100.00;99314.34;6338711;22;20001;-88
2022/06/05 13:04:32;;;;;;;;;;;;;;;14.88;100.00;99319.97;6339008;22;19911;-87
2022/06/05 13:07:03;;;;;;;;;;;;;;;15.01;100.00;99309.34;6245928;22;19922;-88
2022/06/05 13:09:38;;;;;;;;;;;;;;;14.79;100.00;99317.09;6336139;22;19929;-89
2022/06/05 13:12:07;;;;;;;;;;;;;;;15.08;100.00;99315.97;6280414;22;19911;-88
2022/06/05 13:14:40;;;;;;;;;;;;;;;14.61;100.00;99313.84;6306731;22;20346;-87
2022/06/05 13:17:37;;;;;;;;;;;;;;;;;;;;;
2022/06/05 13:20:20;;;;;;;;;;;;;;;14.64;100.00;99327.84;6307372;22;20385;-89
2022/06/05 13:22:48;;;;;;;;;;;;;;;14.95;100.00;99332.91;6305678;22;20385;-88
2022/06/05 13:25:33;;;;;;;;;;;;;;;14.86;100.00;99345.91;6279764;22;19917;-90
2022/06/05 13:28:22;;;;;;;;;;;;;;;14.85;100.00;99348.69;6279422;22;19911;-89
2022/06/05 13:34:27;;;;;;;;;;;;;;;14.79;100.00;99384.63;6287892;22;19937;-89
2022/06/05 13:36:56;;;;;;;;;;;;;;;14.82;100.00;99402.22;6278922;22;19918;-88
2022/06/05 13:39:50;;;;;;;;;;;;;;;14.67;100.00;99402.28;6279470;22;19938;-89
2022/06/05 13:42:20;;;;;;;;;;;;;;;15.00;100.00;99389.50;6256215;22;19915;-90
2022/06/05 13:45:07;;;;;;;;;;;;;;;14.57;100.00;99402.94;6278086;22;19930;-89
2022/06/05 13:47:47;;;;;;;;;;;;;;;14.95;100.00;99407.59;6272405;22;19994;-89
2022/06/05 13:50:31;;;;;;;;;;;;;;;14.57;100.00;99408.28;6272248;22;19919;-90
2022/06/05 13:53:11;;;;;;;;;;;;;;;14.92;100.00;99406.00;6245052;22;19945;-89
2022/06/05 13:55:46;;;;;;;;;;;;;;;14.59;100.00;99409.91;6272659;22;19915;-90
2022/06/05 13:58:43;;;;;;;;;;;;;;;14.84;100.00;99416.34;6272172;22;19926;-89
2022/06/05 14:01:14;;;;;;;;;;;;;;;14.71;100.00;99416.28;6208438;22;19915;-89
2022/06/05 14:03:47;;;;;;;;;;;;;;;14.74;100.00;99415.22;6272826;22;19922;-89
2022/06/05 14:06:18;;;;;;;;;;;;;;;14.95;100.00;99420.94;6246615;22;19915;-91
2022/06/05 14:08:52;;;;;;;;;;;;;;;14.53;100.00;99413.84;6247100;22;19915;-89
2022/06/05 14:11:33;;;;;;;;;;;;;;;14.89;100.00;99407.06;6303780;22;20394;-88
2022/06/05 14:14:00;;;;;;;;;;;;;;;14.51;100.00;99409.56;6306368;22;20315;-88
2022/06/05 14:16:38;;;;;;;;;;;;;;;14.86;100.00;99425.94;6306073;22;20262;-88
2022/06/05 14:19:07;;;;;;;;;;;;;;;14.80;100.00;99425.47;6307130;22;19942;-89
2022/06/05 14:21:41;;;;;;;;;;;;;;;14.80;100.00;99420.16;6305391;22;19915;-89
2022/06/05 14:24:36;;;;;;;;;;;;;;;15.03;100.00;99422.16;6303284;22;19910;-89
2022/06/05 14:27:03;;;;;;;;;;;;;;;14.67;100.00;99402.28;6195441;22;19989;-89
2022/06/05 14:29:40;;;;;;;;;;;;;;;14.99;100.00;99385.09;6307059;22;19911;-89
2022/06/05 14:32:15;;;;;;;;;;;;;;;14.67;100.00;99367.63;6278392;22;22871;-89
2022/06/05 14:34:42;;;;;;;;;;;;;;;14.94;100.00;99337.41;6304901;22;19994;-88
2022/06/05 14:37:18;;;;;;;;;;;;;;;14.91;100.00;99313.59;6303543;22;19918;-88
2022/06/05 14:39:46;;;;;;;;;;;;;;;14.91;100.00;99294.94;6279381;22;19918;-89
2022/06/05 14:42:13;;;;;;;;;;;;;;;15.19;100.00;99283.19;6306010;22;20002;-89
2022/06/05 14:44:43;;;;;;;;;;;;;;;14.76;100.00;99277.28;6279040;22;20298;-88
2022/06/05 14:47:11;;;;;;;;;;;;;;;15.05;100.00;99294.81;6279079;22;19911;-88
2022/06/05 14:49:46;;;;;;;;;;;;;;;14.86;100.00;99310.41;6305971;22;20341;-88
2022/06/05 14:52:12;;;;;;;;;;;;;;;14.83;100.00;99327.44;6303193;22;20397;-88
2022/06/05 15:00:18;;;;;;;;;;;;;;;14.98;100.00;99359.38;6306312;22;20005;-88
2022/06/05 15:03:08;;;;;;;;;;;;;;;14.57;100.00;99384.28;6306393;22;19915;-89
2022/06/05 15:05:36;;;;;;;;;;;;;;;15.01;100.00;99405.41;6304900;22;19914;-88
2022/06/05 15:08:04;;;;;;;;;;;;;;;14.81;100.00;99421.88;6302971;22;19934;-89
2022/06/05 15:10:40;;;;;;;;;;;;;;;14.75;100.00;99435.59;6307181;22;19962;-89
2022/06/05 15:13:11;;;;;;;;;;;;;;;15.01;100.00;99445.41;6308234;22;19960;-88
2022/06/05 15:15:43;;;;;;;;;;;;;;;14.54;100.00;99438.69;6338794;22;19957;-92
2022/06/05 15:18:30;;;;;;;;;;;;;;;;;;;;;
2022/06/05 15:21:11;;;;;;;;;;;;;;;14.64;100.00;99436.31;6339635;22;19993;-88
2022/06/05 15:23:45;;;;;;;;;;;;;;;14.83;100.00;99447.47;6311071;22;19914;-91
2022/06/05 15:26:13;;;;;;;;;;;;;;;14.76;100.00;99446.19;6312167;22;19964;-89
2022/06/05 15:28:52;;;;;;;;;;;;;;;14.67;100.00;99436.94;6312325;22;20233;-89
2022/06/05 15:31:30;;;;;;;;;;;;;;;14.97;100.00;99432.38;6339862;22;19956;-89
2022/06/05 15:34:01;;;;;;;;;;;;;;;14.56;100.00;99431.44;6311736;22;19977;-91
2022/06/05 15:36:51;;;;;;;;;;;;;;;;;;;;;
2022/06/05 15:39:35;;;;;;;;;;;;;;;14.53;100.00;99435.16;6338079;22;20005;-90
2022/06/05 15:42:13;;;;;;;;;;;;;;;14.84;100.00;99437.69;6339395;22;20262;-90
2022/06/05 15:44:51;;;;;;;;;;;;;;;14.67;100.00;99441.44;6339535;22;19995;-90
2022/06/05 15:47:19;;;;;;;;;;;;;;;14.69;100.00;99440.41;6311780;22;19915;-90
2022/06/05 15:49:57;;;;;;;;;;;;;;;15.02;100.00;99447.09;6312138;22;19911;-90
2022/06/05 15:52:36;;;;;;;;;;;;;;;14.56;100.00;99443.91;6310137;22;20346;-89
2022/06/05 15:55:05;;;;;;;;;;;;;;;14.90;100.00;99458.59;6312136;22;19993;-90
2022/06/05 16:00:20;;;;;;;;;;;;;;;14.83;100.00;99478.63;6338605;22;19957;-90
2022/06/05 16:02:50;;;;;;;;;;;;;;;14.81;100.00;99485.88;6311194;22;20330;-90
2022/06/05 16:05:24;;;;;;;;;;;;;;;14.67;100.00;99476.94;6312240;22;19910;-90
2022/06/05 16:07:52;;;;;;;;;;;;;;;14.98;100.00;99488.31;6310520;22;19982;-89
2022/06/05 16:10:29;;;;;;;;;;;;;;;14.57;100.00;99491.81;6311878;22;20238;-90
2022/06/05 16:12:57;;;;;;;;;;;;;;;14.92;100.00;99487.81;6339534;22;19914;-89
2022/06/05 16:15:38;;;;;;;;;;;;;;;14.68;100.00;99492.00;6311337;22;19984;-89
2022/06/05 16:18:11;;;;;;;;;;;;;;;14.81;100.00;99486.72;6312074;22;19916;-89
2022/06/05 16:20:47;;;;;;;;;;;;;;;15.09;100.00;99484.91;6311198;22;19911;-87
2022/06/05 16:23:21;;;;;;;;;;;;;;;14.63;100.00;99498.56;6336925;22;19970;-89
2022/06/05 16:25:50;;;;;;;;;;;;;;;14.58;100.00;99511.31;6310643;22;19911;-90
2022/06/05 16:28:29;;;;;;;;;;;;;;;13.96;100.00;99510.69;6311651;22;19993;-90
2022/06/05 16:31:13;;;;;;;;;;;;;;;14.40;100.00;99508.00;6312078;22;20011;-96
2022/06/05 16:33:38;;;;;;;;;;;;;;;14.07;100.00;99501.16;6339160;22;19910;-91
2022/06/05 16:39:16;;;;;;;;;;;;;;;13.27;100.00;99509.44;6333867;22;19918;-90
2022/06/05 16:42:08;;;;;;;;;;;;;;;12.98;100.00;99522.63;6311660;22;19918;-89
2022/06/05 16:44:42;;;;;;;;;;;;;;;12.72;100.00;99519.63;6330756;22;19963;-90
2022/06/05 16:47:08;;;;;;;;;;;;;;;12.44;100.00;99525.63;6311132;22;20000;-90
2022/06/05 16:49:40;;;;;;;;;;;;;;;12.43;100.00;99526.59;6311004;22;19957;-89
2022/06/05 16:52:16;;;;;;;;;;;;;;;12.31;100.00;99517.47;6337343;22;19981;-89
2022/06/05 16:54:57;;;;;;;;;;;;;;;12.07;100.00;99511.69;6339202;22;19985;-90
2022/06/05 16:57:29;;;;;;;;;;;;;;;12.07;100.00;99509.03;6311737;22;19938;-88
2022/06/05 17:00:15;;;;;;;;;;;;;;;12.03;100.00;99493.31;6310538;22;19914;-88
2022/06/05 17:02:43;;;;;;;;;;;;;;;11.88;100.00;99497.63;6311029;22;19998;-89
2022/06/05 17:05:11;;;;;;;;;;;;;;;11.90;100.00;99496.63;6338247;22;20238;-89
2022/06/05 17:07:54;;;;;;;;;;;;;;;11.84;100.00;99506.69;6309271;22;20005;-87
2022/06/05 17:10:28;;;;;;;;;;;;;;;11.66;100.00;99512.00;6338116;22;19953;-89
2022/06/05 17:12:57;;;;;;;;;;;;;;;11.81;100.00;99513.03;6338557;22;19915;-86
2022/06/05 17:15:25;;;;;;;;;;;;;;;11.72;100.00;99511.69;6338531;22;20044;-91
2022/06/05 17:18:13;;;;;;;;;;;;;;;11.64;100.00;99522.72;6311234;22;19941;-88
2022/06/05 17:20:43;;;;;;;;;;;;;;;11.78;100.00;99521.16;6337852;22;19918;-87
2022/06/05 17:23:12;;;;;;;;;;;;;;;11.60;100.00;99522.97;6337299;22;20330;-88
2022/06/05 17:25:38;;;;;;;;;;;;;;;11.83;100.00;99527.06;6310347;22;19914;-87
2022/06/05 17:28:06;;;;;;;;;;;;;;;12.29;100.00;99534.44;6310964;22;19920;-87
2022/06/05 17:30:50;;;;;;;;;;;;;;;11.79;100.00;99522.84;6337668;22;19921;-87
2022/06/05 17:33:32;;;;;;;;;;;;;;;11.77;100.00;99522.94;6310399;22;19914;-87
2022/06/05 17:36:12;;;;;;;;;;;;;;;11.69;100.00;99508.34;6338400;22;20387;-88
2022/06/05 17:38:40;;;;;;;;;;;;;;;11.50;100.00;99519.06;6336302;22;19993;-87
2022/06/05 17:41:23;;;;;;;;;;;;;;;11.71;100.00;99509.13;6337744;22;19968;-87
2022/06/05 17:43:57;;;;;;;;;;;;;;;11.57;100.00;99504.56;6310682;22;19997;-88
2022/06/05 17:46:43;;;;;;;;;;;;;;;11.32;100.00;99511.09;6310935;22;19917;-88
2022/06/05 17:49:23;;;;;;;;;;;;;;;11.64;100.00;99516.56;6338198;22;19915;-88
2022/06/05 17:51:58;;;;;;;;;;;;;;;11.59;100.00;99523.91;6310903;22;19911;-87
2022/06/05 17:54:28;;;;;;;;;;;;;;;11.37;100.00;99527.63;6336369;22;19922;-88
2022/06/05 17:56:59;;;;;;;;;;;;;;;11.66;100.00;99525.28;6310358;22;19910;-88
2022/06/05 18:00:05;;;;;;;;;;;;;;;11.48;100.00;99534.19;6312318;22;19994;-90
2022/06/05 18:02:33;;;;;;;;;;;;;;;11.42;100.00;99541.53;6247516;22;20035;-87
2022/06/05 18:08:17;;;;;;;;;;;;;;;11.65;100.00;99523.59;6309941;22;19915;-87
2022/06/05 18:11:12;;;;;;;;;;;;;;;;;;;;;
2022/06/05 18:19:59;;;;;;;;;;;;;;;;;;;;;
2022/06/05 18:22:33;;;;;;;;;;;;;;;11.43;100.00;99523.81;6180518;23;20315;-88
2022/06/05 18:25:22;;;;;;;;;;;;;;;11.66;100.00;99519.13;6284203;22;19915;-89
2022/06/05 18:27:58;;;;;;;;;;;;;;;11.45;100.00;99519.28;6306395;22;20246;-87
2022/06/05 18:30:45;;;;;;;;;;;;;;;11.36;100.00;99523.28;6279642;22;19915;-88
2022/06/05 18:33:28;;;;;;;;;;;;;;;11.64;100.00;99522.72;6279000;22;20285;-87
2022/06/05 18:39:06;;;;;;;;;;;;;;;11.37;100.00;99519.66;6305167;22;20005;-88
2022/06/05 18:41:56;;;;;;;;;;;;;;;;;;;;;
2022/06/05 18:44:41;;;;;;;;;;;;;;;11.52;100.00;99503.91;6306436;22;20397;-88
2022/06/05 18:47:23;;;;;;;;;;;;;;;11.37;100.00;99517.00;6305387;22;19961;-89
2022/06/05 18:50:03;;;;;;;;;;;;;;;;;;;;;
2022/06/05 18:53:00;;;;;;;;;;;;;;;;;;;;;
2022/06/05 18:55:28;;;;;;;;;;;;;;;;;;;;;
2022/06/05 18:57:53;;;;;;;;;;;;;;;11.12;100.00;99524.47;6306240;22;20170;-88
2022/06/05 19:00:36;;;;;;;;;;;;;;;10.92;100.00;99528.97;6306402;22;19946;-89
2022/06/05 19:03:04;;;;;;;;;;;;;;;10.81;100.00;99537.44;6306125;22;19918;-87
2022/06/05 19:05:46;;;;;;;;;;;;;;;10.92;100.00;99531.63;6306353;22;19911;-89
2022/06/05 19:08:34;;;;;;;;;;;;;;;10.69;100.00;99546.84;6277312;22;19915;-88
2022/06/05 19:11:04;;;;;;;;;;;;;;;10.70;100.00;99540.59;6306341;22;19918;-90
2022/06/05 19:13:32;;;;;;;;;;;;;;;10.64;100.00;99543.56;6278829;22;19957;-89
2022/06/05 19:16:01;;;;;;;;;;;;;;;10.55;100.00;99543.97;6278821;22;19911;-88
2022/06/05 19:18:48;;;;;;;;;;;;;;;;;;;;;
2022/06/05 19:21:33;;;;;;;;;;;;;;;10.52;100.00;99546.75;6306157;22;20005;-93
2022/06/05 19:24:22;;;;;;;;;;;;;;;10.59;100.00;99552.63;6304532;22;19918;-90
2022/06/05 19:26:48;;;;;;;;;;;;;;;10.71;100.00;99552.91;6306395;22;19910;-88
2022/06/05 19:29:16;;;;;;;;;;;;;;;10.46;100.00;99547.88;6278963;22;19958;-89
2022/06/05 19:31:49;;;;;;;;;;;;;;;10.71;100.00;99555.56;6278818;22;19911;-89
2022/06/05 19:34:34;;;;;;;;;;;;;;;10.61;100.00;99553.41;6306090;22;19914;-89
2022/06/05 19:37:17;;;;;;;;;;;;;;;10.49;100.00;99554.84;6305859;22;20323;-90
2022/06/05 19:39:49;;;;;;;;;;;;;;;10.77;100.00;99561.50;6307084;22;19922;-90
2022/06/05 19:42:24;;;;;;;;;;;;;;;10.61;100.00;99558.72;6279092;22;19915;-92
2022/06/05 19:44:50;;;;;;;;;;;;;;;10.61;100.00;99559.59;6279349;22;19911;-90
2022/06/05 19:47:23;;;;;;;;;;;;;;;10.72;100.00;99565.25;6306039;22;19914;-89
2022/06/05 19:49:50;;;;;;;;;;;;;;;10.59;100.00;99569.38;6306072;22;19953;-89
2022/06/05 19:52:17;;;;;;;;;;;;;;;10.89;100.00;99572.38;6277529;22;19937;-92
2022/06/05 19:54:55;;;;;;;;;;;;;;;10.69;100.00;99570.69;6306031;22;20330;-90
2022/06/05 19:57:34;;;;;;;;;;;;;;;10.68;100.00;99574.25;6279000;22;19911;-90
2022/06/05 20:00:05;;;;;;;;;;;;;;;10.89;100.00;99571.53;6306111;22;19911;-90
2022/06/05 20:02:31;;;;;;;;;;;;;;;10.68;100.00;99574.25;6307498;22;20319;-89
2022/06/05 20:04:58;;;;;;;;;;;;;;;10.95;100.00;99587.16;6307700;22;19922;-89
2022/06/05 20:07:39;;;;;;;;;;;;;;;10.75;100.00;99588.06;6306507;22;20124;-90
2022/06/05 20:10:31;;;;;;;;;;;;;;;10.67;100.00;99599.06;6307906;22;20383;-89
2022/06/05 20:16:11;;;;;;;;;;;;;;;10.88;100.00;99596.31;6307757;22;19942;-90
2022/06/05 20:18:43;;;;;;;;;;;;;;;10.72;100.00;99588.22;6280667;22;20018;-90
2022/06/05 20:21:31;;;;;;;;;;;;;;;11.04;100.00;99586.72;6280833;22;19917;-89
2022/06/05 20:24:14;;;;;;;;;;;;;;;10.90;100.00;99590.00;6278716;22;20394;-89
2022/06/05 20:26:48;;;;;;;;;;;;;;;10.81;100.00;99594.88;6280790;22;20310;-90
2022/06/05 20:29:30;;;;;;;;;;;;;;;11.11;100.00;99594.38;6280187;22;20345;-90
2022/06/05 20:32:08;;;;;;;;;;;;;;;11.00;100.00;99594.88;6280740;22;19964;-90
2022/06/05 20:34:39;;;;;;;;;;;;;;;10.98;100.00;99592.31;6280456;22;19918;-89
2022/06/05 20:37:18;;;;;;;;;;;;;;;11.18;100.00;99585.16;6306831;22;19911;-91
2022/06/05 20:40:07;;;;;;;;;;;;;;;11.02;100.00;99583.25;6308537;22;19945;-89
2022/06/05 20:42:36;;;;;;;;;;;;;;;11.11;100.00;99574.00;6280149;22;19990;-90
2022/06/05 20:45:15;;;;;;;;;;;;;;;11.31;100.00;99570.38;6280233;22;19914;-89
2022/06/05 20:47:48;;;;;;;;;;;;;;;11.17;100.00;99564.88;6279694;22;20269;-90
2022/06/05 20:50:13;;;;;;;;;;;;;;;11.26;100.00;99564.44;6307524;22;19914;-90
2022/06/05 20:52:50;;;;;;;;;;;;;;;11.31;100.00;99570.38;6278454;22;20334;-90
2022/06/05 20:55:18;;;;;;;;;;;;;;;11.17;100.00;99571.06;6280436;22;19929;-89
2022/06/05 20:57:59;;;;;;;;;;;;;;;11.38;100.00;99587.72;6280397;22;19911;-90
2022/06/05 21:00:30;;;;;;;;;;;;;;;11.28;100.00;99586.47;6307690;22;20166;-89
2022/06/05 21:08:42;;;;;;;;;;;;;;;11.37;100.00;99599.25;6274931;22;20235;-90
2022/06/05 21:16:57;;;;;;;;;;;;;;;11.36;100.00;99602.84;6276620;22;19942;-90
2022/06/05 21:19:34;;;;;;;;;;;;;;;11.15;100.00;99612.69;6250088;22;19926;-91
2022/06/05 21:22:08;;;;;;;;;;;;;;;11.42;100.00;99615.81;6251118;22;19985;-91
2022/06/05 21:24:38;;;;;;;;;;;;;;;11.29;100.00;99620.00;6248847;22;19915;-92
2022/06/05 21:27:07;;;;;;;;;;;;;;;11.16;100.00;99619.72;6248927;22;19915;-91
2022/06/05 21:30:00;;;;;;;;;;;;;;;11.43;100.00;99635.25;6276375;22;19993;-93
2022/06/05 21:32:41;;;;;;;;;;;;;;;11.24;100.00;99638.78;6252015;22;20279;-89
2022/06/05 21:35:41;;;;;;;;;;;;;;;;;;;;;
2022/06/05 21:38:25;;;;;;;;;;;;;;;11.47;100.00;99646.56;6274715;22;19994;-85
2022/06/05 21:41:01;;;;;;;;;;;;;;;11.25;100.00;99647.59;6249112;22;19918;-87
2022/06/05 21:43:45;;;;;;;;;;;;;;;11.15;100.00;99646.31;6276008;22;19919;-88
2022/06/05 21:46:15;;;;;;;;;;;;;;;11.40;100.00;99646.00;6249099;22;19950;-88
2022/06/05 21:48:45;;;;;;;;;;;;;;;11.19;100.00;99645.25;6274925;22;19911;-89
2022/06/05 21:51:14;;;;;;;;;;;;;;;11.26;100.00;99659.91;6248777;22;19982;-85
2022/06/05 21:53:41;;;;;;;;;;;;;;;11.36;100.00;99668.28;6274431;22;20320;-86
2022/06/05 21:56:10;;;;;;;;;;;;;;;11.12;100.00;99678.28;6248891;22;19915;-87
2022/06/05 21:58:57;;;;;;;;;;;;;;;11.38;100.00;99675.25;6276148;22;20200;-90
2022/06/05 22:01:24;;;;;;;;;;;;;;;11.29;100.00;99673.03;6275167;22;19912;-88
2022/06/05 22:03:50;;;;;;;;;;;;;;;11.08;100.00;99683.72;6248551;22;19911;-88
2022/06/05 22:06:16;;;;;;;;;;;;;;;11.37;100.00;99684.13;6276034;22;19918;-86
2022/06/05 22:08:41;;;;;;;;;;;;;;;11.14;100.00;99677.28;6275415;22;19939;-86
2022/06/05 22:11:07;;;;;;;;;;;;;;;11.28;100.00;99681.94;6276537;22;20238;-85
2022/06/05 22:13:32;;;;;;;;;;;;;;;11.26;100.00;99681.13;6248781;22;19915;-88
2022/06/05 22:16:07;;;;;;;;;;;;;;;11.16;100.00;99690.47;6248818;22;19998;-89
2022/06/05 22:18:35;;;;;;;;;;;;;;;11.42;100.00;99686.56;6274231;22;19942;-91
2022/06/05 22:28:21;;;;;;;;;;;;;;;;;;;;;
2022/06/05 22:30:44;;;;;;;;;;;;;;;11.41;100.00;99688.38;6033085;23;19961;-90
2022/06/05 22:33:12;;;;;;;;;;;;;;;11.16;100.00;99693.13;6035743;23;20001;-87
2022/06/05 22:39:06;;;;;;;;;;;;;;;;;;;;;
2022/06/05 22:41:59;;;;;;;;;;;;;;;11.08;100.00;99691.69;6093381;23;20333;-90
2022/06/05 22:44:28;;;;;;;;;;;;;;;11.02;100.00;99693.75;6178655;23;19912;-92
2022/06/05 22:46:53;;;;;;;;;;;;;;;11.24;100.00;99699.78;6269294;22;19915;-87
2022/06/05 22:49:18;;;;;;;;;;;;;;;10.96;100.00;99697.56;6275838;22;20014;-89
2022/06/05 22:51:49;;;;;;;;;;;;;;;11.16;100.00;99701.06;6248854;22;19919;-89
2022/06/05 22:54:54;;;;;;;;;;;;;;;11.04;100.00;99698.06;6274914;22;19911;-91
2022/06/05 22:57:44;;;;;;;;;;;;;;;;;;;;;
2022/06/05 23:00:49;;;;;;;;;;;;;;;;;;;;;
2022/06/05 23:30:41;;;;;;;;;;;;;;;10.92;100.00;99701.28;6321068;22;19949;-90
